Impacts TAF Board INFO
FOR SITUATIONAL AWARENESS. NOT TO BE USED FOR FLIGHT PLANNING PURPOSES.
IDs:

KCSG - Columbus Arpt, GA, US

Issued at 1728 UTC 21 Nov 2017
Updated at 2112 UTC 21 Nov 2017
Potential Impact None Slight Moderate High
Time2051Z 21/22Z 21/23Z 22/00Z 22/01Z 22/02Z 22/03Z 22/04Z 22/05Z 22/06Z 22/07Z 22/08Z 22/09Z 22/10Z>>
Type OBS PRVL PRVL PRVL PRVL PRVL PRVL PRVL PRVL PRVL PRVL PRVL PRVL PRVL
VIS 10 >6 >6 >6 >6 >6 >6 >6 >6 3 3 3 3 3
CIG 33 50 35 35 20 20 20 20 20 9 9 9 9 9
Cover OVC OVC BKN BKN BKN BKN BKN BKN BKN BKN BKN BKN BKN BKN
FltCat VFR VFR VFR VFR MVFR MVFR MVFR MVFR MVFR IFR IFR IFR IFR IFR
WX -- -- -- -- -- -- -- -- -- BR BR BR BR BR
WDir VRB 170 VRB VRB VRB VRB VRB VRB VRB VRB VRB VRB VRB VRB
WSpd 0 4 0 0 0 0 0 0 0 0 0 0 0 0
WGst -- -- -- -- -- -- -- -- -- -- -- -- -- --

Raw TAF
KCSG 211728Z 2118/2218 11004KT P6SM OVC050
  FM212000 17004KT P6SM OVC050
  FM212300 00000KT P6SM BKN035
  FM220100 00000KT P6SM BKN020
  FM220600 00000KT 3SM BR BKN009
  FM221300 36004KT P6SM BKN015
  FM221500 03006KT P6SM BKN040


Raw METAR
KCSG 212051Z 00000KT 10SM BKN033 OVC047 21/13 A2998 RMK AO2 SLP148 T02110128 56019
KCSG 211951Z 24003KT 10SM BKN039 BKN050 BKN060 21/13 A2999 RMK AO2 SLP151 T02110128
KCSG 211851Z 15004KT 10SM BKN048 BKN085 21/13 A3000 RMK AO2 SLP158 T02060128

METAR Board
Radar Display
Forecast Discussion

FOR SITUATIONAL AWARENESS. NOT TO BE USED FOR FLIGHT PLANNING PURPOSES.